モントリオール/トルドー の空港の天気 - METARとTAF

モントリオール・ピエール・エリオット・トルドー国際空港 ( CYUL / YUL ) - カナダ ケベック州モントリオール
飛行場実況気象(Metar)
観測時間05/28 17:00 EDT (05/28 21:00 UTC)
風向・風速北北西 6m/s 瞬間風速9m/s
視程10km以上
天気現象
全天の4割程度の雲 雲底高度 1580m
気温21℃
湿度46%
気圧1007.7hPa
METARCYUL 282100Z 33012G18KT 280V350 30SM SCT052 21/09 A2975 RMK CU4 SLP077 DENSITY ALT 1100FT
過去の天気等 Google飛行場航空写真 Wunderground天気予報

過去48時間のMETAR

飛行場予報(TAF)
発表時間: 5/28 16:40 EDT (5/28 20:40 UTC)
予報対象時間: 28日17時 EDT ~ 29日14時 EDT
風向・風速西北西 6m/s
視程10km以上
全天の4割程度の雲 雲底高度 1220m
28日17時 EDT ~ 28日18時 EDT に一時的に
全天の8割程度の雲 雲底高度 1220m
28日20時 EDT ~ 28日22時 EDT に徐々に
風向・風速西 4m/s
28日22時 EDT から
風向・風速西 4m/s
視程10km以上
少しの雲 雲底高度 1830m
全天の8割程度の雲 雲底高度 6710m
29日8時 EDT から
風向・風速西南西 5m/s
視程10km以上
少しの雲 雲底高度 1220m
全天の4割程度の雲 雲底高度 4880m
29日10時 EDT ~ 29日12時 EDT に徐々に
風向・風速西南西 5m/s 瞬間風速 10m/s
TAF CYUL 282040Z 2821/2918 30012KT P6SM SCT040
TEMPO 2821/2822 BKN040
BECMG 2900/2902 26008KT
FM290200 26008KT P6SM FEW060 BKN220
FM291200 24010KT P6SM FEW040 SCT160
BECMG 2914/2916 24010G20KT RMK NXT FCST BY 290000Z